Time;durP1;ratioP1;P1;durP2;ratioP2;P2;SDS_P1;SDS_P2;PMS_P1;PMS_P2;Temp;Humidity;BMP_temperature;BMP_pressure;BME280_temperature;BME280_humidity;BME280_pressure;Samples;Min_cycle;Max_cycle;Signal;HPM_P1;HPM_P2
2022/04/10 00:00:25;;;;;;;17.35;5.47;;;;;;;;;;5006063;28;20800;-70
2022/04/10 00:02:53;;;;;;;15.32;5.38;;;;;;;;;;4980069;28;20498;-70
2022/04/10 00:05:20;;;;;;;18.88;6.68;;;;;;;;;;5004493;28;20545;-69
2022/04/10 00:07:48;;;;;;;18.73;6.07;;;;;;;;;;5001471;28;20036;-69
2022/04/10 00:10:16;;;;;;;19.80;7.00;;;;;;;;;;5005914;28;20041;-69
2022/04/10 00:12:44;;;;;;;14.13;4.55;;;;;;;;;;4996765;28;20041;-70
2022/04/10 00:15:11;;;;;;;17.33;4.75;;;;;;;;;;4986459;28;21362;-71
2022/04/10 00:17:38;;;;;;;15.95;4.78;;;;;;;;;;5009542;28;20032;-69
2022/04/10 00:20:06;;;;;;;19.67;5.00;;;;;;;;;;4971788;28;20037;-69
2022/04/10 00:22:39;;;;;;;21.00;5.10;;;;;;;;;;5004290;28;20026;-69
2022/04/10 00:25:09;;;;;;;13.63;4.18;;;;;;;;;;4983163;28;20040;-68
2022/04/10 00:27:36;;;;;;;17.33;4.75;;;;;;;;;;5008501;28;20064;-69
2022/04/10 00:30:09;;;;;;;17.73;4.25;;;;;;;;;;5003470;28;20043;-69
2022/04/10 00:32:39;;;;;;;16.90;4.00;;;;;;;;;;5004580;28;20021;-69
2022/04/10 00:35:10;;;;;;;13.60;3.38;;;;;;;;;;4986595;28;20136;-69
2022/04/10 00:37:38;;;;;;;15.80;3.95;;;;;;;;;;4993624;28;20045;-69
2022/04/10 00:40:07;;;;;;;15.90;3.83;;;;;;;;;;5004884;28;20030;-69
2022/04/10 00:42:34;;;;;;;15.07;3.72;;;;;;;;;;4992533;28;20081;-69
2022/04/10 00:45:01;;;;;;;12.98;3.60;;;;;;;;;;4985709;28;20041;-69
2022/04/10 00:47:27;;;;;;;20.10;4.93;;;;;;;;;;4969360;28;20235;-69
2022/04/10 00:49:53;;;;;;;18.45;4.80;;;;;;;;;;4983993;28;20102;-69
2022/04/10 00:52:22;;;;;;;16.00;4.13;;;;;;;;;;4972538;28;20060;-70
2022/04/10 00:54:51;;;;;;;18.17;4.50;;;;;;;;;;4985538;28;20719;-69
2022/04/10 00:57:17;;;;;;;17.80;4.43;;;;;;;;;;4988855;28;20509;-68
2022/04/10 00:59:48;;;;;;;15.50;3.92;;;;;;;;;;4986980;28;20065;-70
2022/04/10 01:02:15;;;;;;;14.70;3.90;;;;;;;;;;4949418;28;20435;-70
2022/04/10 01:04:46;;;;;;;13.75;3.63;;;;;;;;;;4986346;28;20365;-70
2022/04/10 01:07:13;;;;;;;17.65;4.35;;;;;;;;;;4966880;28;20609;-68
2022/04/10 01:09:41;;;;;;;18.70;4.43;;;;;;;;;;4986711;28;20033;-70
2022/04/10 01:12:08;;;;;;;16.63;4.20;;;;;;;;;;4983109;28;20033;-68
2022/04/10 01:14:36;;;;;;;19.77;4.45;;;;;;;;;;4986495;28;20451;-68
2022/04/10 01:17:07;;;;;;;20.80;4.30;;;;;;;;;;4965941;28;20510;-70
2022/04/10 01:19:37;;;;;;;18.50;4.72;;;;;;;;;;4984754;28;20030;-68
2022/04/10 01:22:06;;;;;;;15.63;4.30;;;;;;;;;;4966017;28;20041;-68
2022/04/10 01:24:43;;;;;;;16.17;4.10;;;;;;;;;;4973643;28;20038;-69
2022/04/10 01:27:09;;;;;;;18.63;4.00;;;;;;;;;;4970606;28;20038;-69
2022/04/10 01:29:35;;;;;;;21.17;4.75;;;;;;;;;;4991771;28;20033;-69
2022/04/10 01:32:04;;;;;;;20.63;4.50;;;;;;;;;;4984300;28;20062;-68
2022/04/10 01:34:33;;;;;;;15.02;3.75;;;;;;;;;;4989282;28;20030;-69
2022/04/10 01:37:05;;;;;;;15.45;3.70;;;;;;;;;;4982591;28;20041;-69
2022/04/10 01:39:34;;;;;;;13.40;3.50;;;;;;;;;;4991333;28;20982;-69
2022/04/10 01:42:03;;;;;;;16.23;3.30;;;;;;;;;;4976334;28;20053;-68
2022/04/10 01:44:40;;;;;;;16.02;3.45;;;;;;;;;;4980312;28;20042;-69
2022/04/10 01:47:07;;;;;;;11.85;3.38;;;;;;;;;;4951416;28;20515;-68
2022/04/10 01:49:34;;;;;;;14.85;3.22;;;;;;;;;;4981238;28;20274;-68
2022/04/10 01:52:02;;;;;;;15.90;3.58;;;;;;;;;;4978186;28;20056;-68
2022/04/10 01:54:29;;;;;;;14.73;4.07;;;;;;;;;;4963988;28;20080;-68
2022/04/10 01:56:58;;;;;;;17.05;3.80;;;;;;;;;;4960550;28;20046;-68
2022/04/10 01:59:28;;;;;;;14.65;3.30;;;;;;;;;;4981655;28;20034;-69
2022/04/10 02:01:58;;;;;;;12.90;3.10;;;;;;;;;;4978391;28;20112;-68
2022/04/10 02:04:26;;;;;;;20.10;3.60;;;;;;;;;;4964030;28;20523;-69
2022/04/10 02:06:52;;;;;;;14.23;3.33;;;;;;;;;;4977798;28;20111;-69
2022/04/10 02:09:21;;;;;;;13.60;3.38;;;;;;;;;;4964700;28;20141;-68
2022/04/10 02:11:49;;;;;;;15.63;3.33;;;;;;;;;;4981714;28;20038;-68
2022/04/10 02:14:19;;;;;;;14.15;3.03;;;;;;;;;;4980522;28;20042;-68
2022/04/10 02:16:46;;;;;;;15.57;3.30;;;;;;;;;;4981485;28;20034;-69
2022/04/10 02:19:14;;;;;;;16.33;3.38;;;;;;;;;;4975968;28;20077;-68
2022/04/10 02:21:41;;;;;;;16.88;3.58;;;;;;;;;;4978481;28;20033;-69
2022/04/10 02:24:08;;;;;;;13.93;2.83;;;;;;;;;;4961059;28;20444;-69
2022/04/10 02:26:36;;;;;;;15.93;2.90;;;;;;;;;;4980169;28;20739;-69
2022/04/10 02:29:03;;;;;;;17.75;3.00;;;;;;;;;;4948996;28;20599;-69
2022/04/10 02:31:30;;;;;;;17.05;3.00;;;;;;;;;;4981142;28;20117;-68
2022/04/10 02:34:00;;;;;;;15.38;2.72;;;;;;;;;;4976807;28;20096;-69
2022/04/10 02:36:26;;;;;;;15.48;2.80;;;;;;;;;;4965900;28;20033;-69
2022/04/10 02:38:53;;;;;;;16.65;2.92;;;;;;;;;;4972514;28;20500;-69
2022/04/10 02:41:19;;;;;;;14.70;2.95;;;;;;;;;;4983486;28;20150;-69
2022/04/10 02:43:45;;;;;;;17.23;3.42;;;;;;;;;;4970857;28;20444;-69
2022/04/10 02:46:11;;;;;;;15.77;2.83;;;;;;;;;;4982464;28;20060;-69
2022/04/10 02:48:39;;;;;;;15.95;2.75;;;;;;;;;;4982810;28;20144;-69
2022/04/10 02:51:05;;;;;;;14.65;2.85;;;;;;;;;;4988914;28;20041;-69
2022/04/10 02:53:31;;;;;;;;;;;;;;;;;;4986206;28;20040;-69
2022/04/10 02:56:01;;;;;;;15.95;2.85;;;;;;;;;;4987887;28;19944;-69
2022/04/10 02:58:27;;;;;;;12.68;2.53;;;;;;;;;;4989520;28;20029;-69
2022/04/10 03:00:54;;;;;;;14.18;2.50;;;;;;;;;;4978403;28;20060;-69
2022/04/10 03:03:20;;;;;;;13.63;2.40;;;;;;;;;;4988114;28;20101;-70
2022/04/10 03:05:48;;;;;;;13.93;2.92;;;;;;;;;;4992036;28;20490;-68
2022/04/10 03:08:16;;;;;;;18.23;2.88;;;;;;;;;;4966478;28;20030;-70
2022/04/10 03:10:43;;;;;;;16.23;3.08;;;;;;;;;;4967899;28;20048;-68
2022/04/10 03:13:10;;;;;;;15.63;2.78;;;;;;;;;;4968443;28;20033;-68
2022/04/10 03:15:36;;;;;;;20.40;3.10;;;;;;;;;;4987379;28;20030;-68
2022/04/10 03:18:03;;;;;;;16.48;2.65;;;;;;;;;;4984435;28;20021;-69
2022/04/10 03:20:32;;;;;;;12.15;2.63;;;;;;;;;;4986964;28;20073;-68
2022/04/10 03:22:59;;;;;;;15.32;2.60;;;;;;;;;;4991479;28;20436;-68
2022/04/10 03:25:27;;;;;;;12.90;2.65;;;;;;;;;;4992601;28;20032;-68
2022/04/10 03:27:54;;;;;;;12.05;2.40;;;;;;;;;;4991025;28;20037;-68
2022/04/10 03:30:23;;;;;;;12.98;2.40;;;;;;;;;;4996036;28;20100;-68
2022/04/10 03:32:55;;;;;;;15.25;2.75;;;;;;;;;;4983177;28;20515;-69
2022/04/10 03:35:22;;;;;;;13.07;2.63;;;;;;;;;;4949495;28;20054;-68
2022/04/10 03:37:50;;;;;;;13.98;2.72;;;;;;;;;;4953351;28;20054;-68
2022/04/10 03:40:16;;;;;;;14.75;2.38;;;;;;;;;;4952294;28;20089;-68
2022/04/10 03:42:44;;;;;;;18.15;3.08;;;;;;;;;;4951630;28;20133;-68
2022/04/10 03:45:12;;;;;;;17.95;3.40;;;;;;;;;;4930889;28;22033;-69
2022/04/10 03:47:40;;;;;;;18.20;2.85;;;;;;;;;;4943496;28;20846;-68
2022/04/10 03:50:07;;;;;;;14.73;3.03;;;;;;;;;;4939742;28;20440;-69
2022/04/10 03:52:36;;;;;;;17.15;2.78;;;;;;;;;;4940008;28;20045;-68
2022/04/10 03:55:03;;;;;;;17.60;2.83;;;;;;;;;;4918247;28;20873;-68
2022/04/10 03:57:30;;;;;;;;;;;;;;;;;;4925000;28;20125;-68
2022/04/10 03:59:59;;;;;;;17.02;2.35;;;;;;;;;;4921300;28;19950;-68
2022/04/10 04:02:27;;;;;;;15.68;2.55;;;;;;;;;;4928440;28;20046;-68
2022/04/10 04:04:53;;;;;;;14.48;2.63;;;;;;;;;;4923085;28;20027;-69
2022/04/10 04:07:20;;;;;;;17.83;2.83;;;;;;;;;;4927040;28;20066;-68
2022/04/10 04:09:49;;;;;;;12.05;2.58;;;;;;;;;;4927647;28;20039;-68
2022/04/10 04:12:19;;;;;;;14.52;3.03;;;;;;;;;;4927821;28;20587;-68
2022/04/10 04:14:47;;;;;;;14.48;2.47;;;;;;;;;;4927774;28;20125;-68
2022/04/10 04:17:16;;;;;;;14.70;2.60;;;;;;;;;;4924212;28;20497;-69
2022/04/10 04:19:46;;;;;;;16.70;2.72;;;;;;;;;;4908114;28;20043;-69
2022/04/10 04:22:15;;;;;;;15.85;2.75;;;;;;;;;;4923016;28;20053;-69
2022/04/10 04:24:46;;;;;;;15.32;2.50;;;;;;;;;;4926551;28;20070;-69
2022/04/10 04:27:14;;;;;;;13.38;2.55;;;;;;;;;;4951273;28;20130;-70
2022/04/10 04:29:42;;;;;;;16.17;2.80;;;;;;;;;;4958876;28;20053;-67
2022/04/10 04:32:10;;;;;;;15.70;2.50;;;;;;;;;;4951337;28;20038;-67
2022/04/10 04:34:38;;;;;;;12.48;2.53;;;;;;;;;;4956925;28;20563;-69
2022/04/10 04:37:04;;;;;;;16.50;2.90;;;;;;;;;;4955751;28;20548;-68
2022/04/10 04:39:32;;;;;;;15.18;2.30;;;;;;;;;;4981767;28;20152;-69
2022/04/10 04:41:58;;;;;;;18.48;2.85;;;;;;;;;;4976135;28;20531;-70
2022/04/10 04:44:26;;;;;;;14.93;2.80;;;;;;;;;;4979168;28;20689;-67
2022/04/10 04:46:55;;;;;;;15.77;2.47;;;;;;;;;;4993347;28;20127;-70
2022/04/10 04:49:22;;;;;;;15.43;2.85;;;;;;;;;;4996202;28;20037;-70
2022/04/10 04:51:49;;;;;;;16.25;2.35;;;;;;;;;;5000480;28;20064;-67
2022/04/10 04:54:16;;;;;;;13.18;2.70;;;;;;;;;;4995742;28;20064;-68
2022/04/10 04:56:43;;;;;;;17.13;2.90;;;;;;;;;;4998993;28;20042;-68
2022/04/10 04:59:09;;;;;;;15.38;2.75;;;;;;;;;;4982279;28;20076;-67
2022/04/10 05:01:40;;;;;;;14.32;2.83;;;;;;;;;;5000294;28;20056;-68
2022/04/10 05:04:09;;;;;;;21.23;3.17;;;;;;;;;;4995272;28;20099;-68
2022/04/10 05:06:35;;;;;;;19.98;3.10;;;;;;;;;;5000996;28;20489;-67
2022/04/10 05:09:03;;;;;;;16.80;2.95;;;;;;;;;;4962660;28;20040;-68
2022/04/10 05:11:29;;;;;;;14.65;2.65;;;;;;;;;;4997118;28;20037;-68
2022/04/10 05:13:55;;;;;;;;;;;;;;;;;;4980402;28;20034;-68
2022/04/10 05:16:22;;;;;;;13.45;2.58;;;;;;;;;;5001777;28;20397;-67
2022/04/10 05:18:50;;;;;;;17.90;3.92;;;;;;;;;;5001435;28;20474;-68
2022/04/10 05:21:19;;;;;;;17.40;3.35;;;;;;;;;;4983720;28;20451;-68
2022/04/10 05:23:45;;;;;;;13.85;2.80;;;;;;;;;;4998900;28;20029;-68
2022/04/10 05:26:11;;;;;;;15.00;2.85;;;;;;;;;;4995324;28;20614;-67
2022/04/10 05:28:37;;;;;;;12.90;2.65;;;;;;;;;;4999571;28;20128;-68
2022/04/10 05:31:04;;;;;;;13.20;3.13;;;;;;;;;;4997184;28;20518;-67
2022/04/10 05:33:36;;;;;;;17.10;3.22;;;;;;;;;;5000884;28;20143;-67
2022/04/10 05:36:04;;;;;;;14.85;2.92;;;;;;;;;;4979447;28;20072;-68
2022/04/10 05:38:30;;;;;;;17.38;2.95;;;;;;;;;;4999932;28;20030;-69
2022/04/10 05:40:59;;;;;;;15.15;3.55;;;;;;;;;;4992568;28;20046;-69
2022/04/10 05:43:28;;;;;;;16.92;3.90;;;;;;;;;;4987436;28;20113;-68
2022/04/10 05:45:58;;;;;;;19.25;3.60;;;;;;;;;;4971388;28;20026;-68
2022/04/10 05:48:29;;;;;;;15.68;3.53;;;;;;;;;;4944892;28;20484;-68
2022/04/10 05:50:56;;;;;;;16.45;3.90;;;;;;;;;;4972922;28;20664;-68
2022/04/10 05:53:24;;;;;;;18.90;3.40;;;;;;;;;;4995486;28;20037;-68
2022/04/10 05:55:52;;;;;;;13.27;3.15;;;;;;;;;;4989425;28;20033;-68
2022/04/10 05:58:19;;;;;;;16.17;3.33;;;;;;;;;;4990637;28;20058;-69
2022/04/10 06:00:46;;;;;;;15.88;3.45;;;;;;;;;;4989563;28;20030;-68
2022/04/10 06:03:15;;;;;;;15.68;3.50;;;;;;;;;;4988368;28;20227;-68
2022/04/10 06:05:47;;;;;;;13.85;2.78;;;;;;;;;;4989508;28;20091;-68
2022/04/10 06:08:16;;;;;;;15.48;3.10;;;;;;;;;;4972603;28;20030;-68
2022/04/10 06:10:43;;;;;;;16.08;2.95;;;;;;;;;;4972408;28;20434;-68
2022/04/10 06:13:10;;;;;;;11.70;2.38;;;;;;;;;;4986438;28;20038;-68
2022/04/10 06:15:39;;;;;;;12.35;2.47;;;;;;;;;;4991994;28;20049;-68
2022/04/10 06:18:07;;;;;;;14.25;2.65;;;;;;;;;;4985916;28;20116;-69
2022/04/10 06:20:36;;;;;;;12.68;2.38;;;;;;;;;;4984425;28;20433;-69
2022/04/10 06:23:03;;;;;;;13.35;2.72;;;;;;;;;;4984505;28;20040;-70
2022/04/10 06:25:29;;;;;;;28.05;3.90;;;;;;;;;;4969408;28;20044;-67
2022/04/10 06:27:58;;;;;;;16.27;3.40;;;;;;;;;;4964443;28;20063;-70
2022/04/10 06:30:25;;;;;;;16.52;3.47;;;;;;;;;;4975780;28;20034;-70
2022/04/10 06:32:51;;;;;;;15.45;3.13;;;;;;;;;;4975463;28;20106;-70
2022/04/10 06:35:18;;;;;;;;;;;;;;;;;;4977278;28;20480;-69
2022/04/10 06:37:44;;;;;;;15.02;2.78;;;;;;;;;;4972537;28;19917;-69
2022/04/10 06:40:11;;;;;;;15.57;3.30;;;;;;;;;;4967271;28;20503;-69
2022/04/10 06:42:37;;;;;;;14.63;2.40;;;;;;;;;;4966175;28;20045;-70
2022/04/10 06:45:03;;;;;;;11.38;2.40;;;;;;;;;;4986811;28;20033;-69
2022/04/10 06:47:31;;;;;;;16.90;2.90;;;;;;;;;;4993165;28;20033;-69
2022/04/10 06:49:58;;;;;;;14.32;2.90;;;;;;;;;;4993544;28;20111;-70
2022/04/10 06:52:24;;;;;;;12.13;2.47;;;;;;;;;;4995255;28;20478;-68
2022/04/10 06:54:51;;;;;;;;;;;;;;;;;;4994311;28;20033;-69
2022/04/10 06:57:18;;;;;;;14.33;2.50;;;;;;;;;;4996703;28;19916;-69
2022/04/10 06:59:44;;;;;;;12.30;2.33;;;;;;;;;;4998367;28;20317;-70
2022/04/10 07:02:11;;;;;;;12.15;2.45;;;;;;;;;;4996190;28;20212;-69
2022/04/10 07:04:39;;;;;;;11.10;2.45;;;;;;;;;;4979818;28;20046;-68
2022/04/10 07:07:05;;;;;;;12.45;2.45;;;;;;;;;;4978642;28;20115;-68
2022/04/10 07:09:31;;;;;;;12.35;2.20;;;;;;;;;;4998930;28;20045;-68
2022/04/10 07:11:58;;;;;;;15.52;2.88;;;;;;;;;;4988674;28;20071;-68
2022/04/10 07:14:24;;;;;;;13.70;2.30;;;;;;;;;;4981858;28;20044;-68
2022/04/10 07:16:51;;;;;;;10.95;2.20;;;;;;;;;;4976759;28;20044;-68
2022/04/10 07:19:18;;;;;;;12.23;2.65;;;;;;;;;;4979122;28;20034;-68
2022/04/10 07:24:29;;;;;;;10.15;2.47;;;;;;;;;;4997626;28;20033;-69
2022/04/10 07:26:55;;;;;;;12.77;2.22;;;;;;;;;;4978551;28;20395;-68
2022/04/10 07:29:21;;;;;;;;;;;;;;;;;;5002640;28;20796;-69
2022/04/10 07:31:49;;;;;;;11.63;2.40;;;;;;;;;;5000009;28;20249;-69
2022/04/10 07:34:16;;;;;;;12.82;2.20;;;;;;;;;;4995775;28;20492;-70
2022/04/10 07:36:45;;;;;;;11.32;2.10;;;;;;;;;;5001627;28;20033;-69
2022/04/10 07:39:12;;;;;;;10.77;2.00;;;;;;;;;;4995246;28;20219;-69
2022/04/10 07:41:41;;;;;;;11.15;2.40;;;;;;;;;;4998572;28;20464;-69
2022/04/10 07:44:08;;;;;;;13.38;2.30;;;;;;;;;;4996400;28;20030;-71
2022/04/10 07:49:19;;;;;;;11.50;2.33;;;;;;;;;;4995186;28;19919;-69
2022/04/10 07:51:48;;;;;;;15.88;2.40;;;;;;;;;;4995153;28;20033;-68
2022/04/10 07:54:14;;;;;;;11.15;2.25;;;;;;;;;;4988517;28;20042;-68
2022/04/10 07:56:42;;;;;;;14.40;4.07;;;;;;;;;;4993672;28;20041;-68
2022/04/10 07:59:10;;;;;;;11.98;3.55;;;;;;;;;;4988644;28;20203;-69
2022/04/10 08:01:38;;;;;;;16.30;4.95;;;;;;;;;;4982299;28;20025;-69
2022/04/10 08:04:07;;;;;;;15.55;4.50;;;;;;;;;;4983666;28;20529;-70
2022/04/10 08:06:34;;;;;;;11.75;3.30;;;;;;;;;;4996640;28;20468;-70
2022/04/10 08:09:03;;;;;;;11.93;4.60;;;;;;;;;;4987939;28;20499;-67
2022/04/10 08:11:30;;;;;;;15.77;4.35;;;;;;;;;;4989922;28;20509;-70
2022/04/10 08:13:57;;;;;;;13.23;3.55;;;;;;;;;;4992197;28;20092;-67
2022/04/10 08:16:25;;;;;;;11.90;2.53;;;;;;;;;;4993490;28;20038;-70
2022/04/10 08:18:56;;;;;;;14.48;2.70;;;;;;;;;;4993255;28;20079;-70
2022/04/10 08:21:23;;;;;;;12.90;2.90;;;;;;;;;;4992591;28;20033;-68
2022/04/10 08:23:51;;;;;;;15.68;3.70;;;;;;;;;;4993276;28;20053;-69
2022/04/10 08:26:29;;;;;;;11.70;2.50;;;;;;;;;;4979388;28;20034;-70
2022/04/10 08:28:56;;;;;;;12.07;2.88;;;;;;;;;;4977723;28;20060;-68
2022/04/10 08:31:23;;;;;;;10.55;2.40;;;;;;;;;;4991267;28;20451;-68
2022/04/10 08:33:51;;;;;;;9.65;2.42;;;;;;;;;;4981241;28;20030;-68
2022/04/10 08:36:19;;;;;;;11.43;2.63;;;;;;;;;;4975914;28;20044;-69
2022/04/10 08:38:45;;;;;;;12.77;2.83;;;;;;;;;;4990140;28;20033;-68
2022/04/10 08:41:13;;;;;;;14.20;3.17;;;;;;;;;;4983213;28;20045;-68
2022/04/10 08:43:40;;;;;;;11.85;3.22;;;;;;;;;;4985660;28;20080;-69
2022/04/10 08:46:06;;;;;;;;;;;;;;;;;;4989478;28;20030;-69
2022/04/10 08:48:32;;;;;;;10.88;2.40;;;;;;;;;;4995369;28;20439;-68
2022/04/10 08:51:01;;;;;;;12.70;2.33;;;;;;;;;;4988449;28;20040;-68
2022/04/10 08:53:27;;;;;;;11.80;2.67;;;;;;;;;;4993609;28;20270;-68
2022/04/10 08:55:54;;;;;;;10.73;1.90;;;;;;;;;;4977845;28;20033;-68
2022/04/10 08:58:21;;;;;;;14.70;2.40;;;;;;;;;;4995288;28;20180;-68
2022/04/10 09:00:47;;;;;;;;;;;;;;;;;;4996058;28;20036;-69
2022/04/10 09:03:13;;;;;;;11.52;2.45;;;;;;;;;;4993637;28;19920;-69
2022/04/10 09:05:40;;;;;;;;;;;;;;;;;;5003042;28;20052;-68
2022/04/10 09:08:10;;;;;;;13.57;3.25;;;;;;;;;;4994320;28;19912;-69
2022/04/10 09:10:56;;;;;;;12.07;2.60;;;;;;;;;;5000308;28;20368;-70
2022/04/10 09:13:27;;;;;;;12.43;2.92;;;;;;;;;;5002636;28;20076;-68
2022/04/10 09:16:00;;;;;;;15.70;3.40;;;;;;;;;;5007217;28;20099;-69
2022/04/10 09:18:27;;;;;;;14.07;2.95;;;;;;;;;;4992454;28;20573;-69
2022/04/10 09:21:07;;;;;;;11.63;4.30;;;;;;;;;;5004825;28;20495;-69
2022/04/10 09:23:34;;;;;;;16.50;3.72;;;;;;;;;;5002438;28;20029;-68
2022/04/10 09:26:00;;;;;;;10.38;3.17;;;;;;;;;;4992876;28;20554;-68
2022/04/10 09:28:46;;;;;;;15.20;4.90;;;;;;;;;;4998869;28;20033;-69
2022/04/10 09:31:29;;;;;;;11.95;2.60;;;;;;;;;;4996777;28;20037;-68
2022/04/10 09:33:58;;;;;;;15.05;3.40;;;;;;;;;;4993573;28;20017;-70
2022/04/10 09:36:35;;;;;;;10.18;2.35;;;;;;;;;;5003471;28;20044;-70
2022/04/10 09:39:02;;;;;;;;;;;;;;;;;;5007191;28;20049;-70
2022/04/10 09:41:28;;;;;;;13.02;2.70;;;;;;;;;;5001678;28;19913;-69
2022/04/10 09:44:17;;;;;;;11.45;2.70;;;;;;;;;;4993308;28;20022;-69
2022/04/10 09:46:45;;;;;;;12.75;3.92;;;;;;;;;;4993977;28;20025;-70
2022/04/10 09:49:19;;;;;;;11.98;4.22;;;;;;;;;;4986436;28;21957;-70
2022/04/10 09:52:03;;;;;;;11.05;3.90;;;;;;;;;;4995365;28;20858;-69
2022/04/10 09:54:50;;;;;;;10.20;2.95;;;;;;;;;;4992226;28;20874;-70
2022/04/10 09:57:16;;;;;;;;;;;;;;;;;;4997760;28;20280;-70
2022/04/10 09:59:47;;;;;;;13.35;2.72;;;;;;;;;;4993572;28;20290;-69
2022/04/10 10:02:18;;;;;;;10.85;2.35;;;;;;;;;;4996040;28;20024;-70
2022/04/10 10:04:45;;;;;;;15.43;2.65;;;;;;;;;;5008401;28;20821;-69
2022/04/10 10:07:20;;;;;;;13.30;2.80;;;;;;;;;;4990686;28;23015;-69
2022/04/10 10:09:52;;;;;;;11.07;2.45;;;;;;;;;;4997243;28;20184;-68
2022/04/10 10:12:22;;;;;;;11.10;2.65;;;;;;;;;;5003393;28;20063;-70
2022/04/10 10:14:50;;;;;;;10.82;2.60;;;;;;;;;;5000449;28;20029;-69
2022/04/10 10:17:19;;;;;;;12.15;2.97;;;;;;;;;;4993887;28;20041;-70
2022/04/10 10:19:47;;;;;;;9.85;2.38;;;;;;;;;;5000427;28;20097;-70
2022/04/10 10:22:17;;;;;;;11.77;2.70;;;;;;;;;;4996765;28;20056;-69
2022/04/10 10:24:57;;;;;;;10.30;2.22;;;;;;;;;;5000831;28;20151;-70
2022/04/10 10:27:55;;;;;;;12.02;2.47;;;;;;;;;;4998670;28;20456;-70
2022/04/10 10:30:36;;;;;;;10.35;2.15;;;;;;;;;;4957108;28;20084;-70
2022/04/10 10:33:11;;;;;;;12.60;2.65;;;;;;;;;;4956594;28;20310;-67
2022/04/10 10:35:44;;;;;;;9.30;2.10;;;;;;;;;;4958607;28;20591;-70
2022/04/10 10:38:20;;;;;;;11.35;2.38;;;;;;;;;;4957582;28;20053;-68
2022/04/10 10:40:49;;;;;;;10.07;2.58;;;;;;;;;;4956908;28;20078;-68
2022/04/10 10:43:23;;;;;;;9.30;2.08;;;;;;;;;;4933723;28;20045;-69
2022/04/10 10:45:52;;;;;;;10.75;2.20;;;;;;;;;;4951469;28;20033;-69
2022/04/10 10:48:25;;;;;;;11.98;2.35;;;;;;;;;;4930002;28;20463;-69
2022/04/10 10:50:52;;;;;;;9.07;2.28;;;;;;;;;;4948788;28;20097;-70
2022/04/10 10:53:23;;;;;;;10.13;2.10;;;;;;;;;;4950850;28;20043;-69
2022/04/10 10:55:52;;;;;;;12.40;2.13;;;;;;;;;;4951733;28;20034;-70
2022/04/10 10:58:31;;;;;;;9.95;1.90;;;;;;;;;;4956085;28;20064;-70
2022/04/10 11:01:04;;;;;;;11.05;2.17;;;;;;;;;;4951485;28;20484;-70
2022/04/10 11:03:32;;;;;;;9.40;2.25;;;;;;;;;;4954974;28;20041;-70
2022/04/10 11:06:08;;;;;;;9.90;2.33;;;;;;;;;;4952433;28;20066;-70
2022/04/10 11:08:40;;;;;;;8.68;2.25;;;;;;;;;;4992981;28;20061;-70
2022/04/10 11:11:07;;;;;;;11.35;2.30;;;;;;;;;;4997214;28;20045;-70
2022/04/10 11:13:42;;;;;;;8.88;2.15;;;;;;;;;;5000221;28;20128;-70
2022/04/10 11:16:10;;;;;;;11.10;2.47;;;;;;;;;;5003445;28;20544;-71
2022/04/10 11:18:42;;;;;;;9.77;2.25;;;;;;;;;;5002642;28;20442;-71
2022/04/10 11:21:14;;;;;;;10.95;2.15;;;;;;;;;;5004162;28;20309;-71
2022/04/10 11:23:48;;;;;;;10.93;3.08;;;;;;;;;;5007427;28;20025;-71
2022/04/10 11:26:15;;;;;;;10.40;2.22;;;;;;;;;;5003825;28;20032;-71
2022/04/10 11:28:57;;;;;;;11.20;2.30;;;;;;;;;;5003375;28;20025;-71
2022/04/10 11:31:36;;;;;;;8.45;2.17;;;;;;;;;;4997428;28;20060;-70
2022/04/10 11:34:18;;;;;;;8.23;2.10;;;;;;;;;;4995705;28;20116;-71
2022/04/10 11:36:57;;;;;;;10.25;2.72;;;;;;;;;;4999271;28;20519;-70
2022/04/10 11:39:25;;;;;;;12.40;2.40;;;;;;;;;;4993719;28;20026;-71
2022/04/10 11:41:57;;;;;;;9.10;2.20;;;;;;;;;;4985477;28;20430;-71
2022/04/10 11:44:25;;;;;;;9.70;1.90;;;;;;;;;;4991177;28;20028;-71
2022/04/10 11:46:52;;;;;;;11.15;2.60;;;;;;;;;;4993812;28;20029;-70
2022/04/10 11:49:20;;;;;;;12.60;2.95;;;;;;;;;;4991600;28;20041;-71
2022/04/10 11:51:54;;;;;;;10.48;2.17;;;;;;;;;;4993095;28;20061;-71
2022/04/10 11:54:31;;;;;;;10.90;2.80;;;;;;;;;;4994471;28;20033;-69
2022/04/10 11:57:03;;;;;;;11.43;2.90;;;;;;;;;;4988479;28;20571;-70
2022/04/10 11:59:37;;;;;;;10.60;3.03;;;;;;;;;;4999466;28;20038;-70
2022/04/10 12:02:24;;;;;;;11.98;2.70;;;;;;;;;;4990842;28;20029;-71
2022/04/10 12:04:52;;;;;;;12.20;3.10;;;;;;;;;;4982785;28;20054;-70
2022/04/10 12:07:22;;;;;;;12.52;4.65;;;;;;;;;;4949678;28;20392;-70
2022/04/10 12:09:53;;;;;;;11.55;2.88;;;;;;;;;;4953919;28;20499;-70
2022/04/10 12:12:20;;;;;;;10.05;2.40;;;;;;;;;;4962520;28;20092;-70
2022/04/10 12:14:48;;;;;;;10.38;2.53;;;;;;;;;;4973182;28;20040;-70
2022/04/10 12:17:19;;;;;;;8.68;2.25;;;;;;;;;;4968201;28;20048;-71
2022/04/10 12:19:47;;;;;;;11.15;2.47;;;;;;;;;;4971239;28;20029;-71
2022/04/10 12:22:20;;;;;;;8.23;1.92;;;;;;;;;;4964095;28;20117;-70
2022/04/10 12:24:48;;;;;;;8.57;1.98;;;;;;;;;;4974204;28;20064;-70
2022/04/10 12:27:17;;;;;;;10.68;2.60;;;;;;;;;;4969549;28;20551;-71
2022/04/10 12:29:45;;;;;;;9.50;2.22;;;;;;;;;;4966063;28;20331;-70
2022/04/10 12:32:11;;;;;;;11.60;2.60;;;;;;;;;;4967200;28;21656;-69
2022/04/10 12:34:44;;;;;;;11.63;2.55;;;;;;;;;;4960024;28;20022;-70
2022/04/10 12:37:11;;;;;;;9.68;2.22;;;;;;;;;;4964026;28;20073;-69
2022/04/10 12:39:38;;;;;;;14.32;2.40;;;;;;;;;;4977233;28;20070;-69
2022/04/10 12:42:07;;;;;;;12.25;2.40;;;;;;;;;;4954766;28;20433;-70
2022/04/10 12:44:34;;;;;;;10.07;2.50;;;;;;;;;;4981497;28;20058;-69
2022/04/10 12:47:01;;;;;;;8.88;2.20;;;;;;;;;;4958552;28;20548;-72
2022/04/10 12:49:27;;;;;;;11.93;2.70;;;;;;;;;;4976587;28;20032;-73
2022/04/10 12:52:00;;;;;;;8.18;2.10;;;;;;;;;;4963429;28;20062;-72
2022/04/10 12:54:42;;;;;;;7.97;1.77;;;;;;;;;;4980065;28;20035;-73
2022/04/10 12:57:13;;;;;;;9.38;2.30;;;;;;;;;;4979371;28;20053;-72
2022/04/10 12:59:46;;;;;;;8.93;2.20;;;;;;;;;;4982510;28;20032;-72
2022/04/10 13:02:21;;;;;;;7.57;1.73;;;;;;;;;;4976127;28;20113;-73
2022/04/10 13:04:57;;;;;;;9.52;2.28;;;;;;;;;;4979651;28;20051;-72
2022/04/10 13:07:27;;;;;;;11.15;2.40;;;;;;;;;;4971518;28;20047;-71
2022/04/10 13:10:03;;;;;;;9.98;2.20;;;;;;;;;;4949941;28;20688;-71
2022/04/10 13:12:30;;;;;;;8.48;2.05;;;;;;;;;;4980591;28;20030;-70
2022/04/10 13:14:56;;;;;;;8.20;2.17;;;;;;;;;;4974286;28;20029;-69
2022/04/10 13:17:30;;;;;;;11.88;2.20;;;;;;;;;;4974987;28;20030;-69
2022/04/10 13:20:04;;;;;;;9.60;2.13;;;;;;;;;;4975677;28;20144;-69
2022/04/10 13:22:32;;;;;;;11.15;2.45;;;;;;;;;;4956720;28;20540;-69
2022/04/10 13:24:58;;;;;;;10.85;1.85;;;;;;;;;;4973355;28;20117;-72
2022/04/10 13:27:24;;;;;;;9.32;2.08;;;;;;;;;;4974293;28;20806;-70
2022/04/10 13:29:50;;;;;;;9.82;2.28;;;;;;;;;;4973725;28;20034;-72
2022/04/10 13:32:18;;;;;;;10.30;1.90;;;;;;;;;;4962040;28;20145;-72
2022/04/10 13:34:45;;;;;;;11.63;2.60;;;;;;;;;;4955314;28;20942;-72
2022/04/10 13:37:13;;;;;;;11.82;2.22;;;;;;;;;;4971920;28;20049;-71
2022/04/10 13:39:39;;;;;;;9.75;2.30;;;;;;;;;;4978279;28;20025;-71
2022/04/10 13:42:07;;;;;;;9.48;2.50;;;;;;;;;;4975651;28;20545;-73
2022/04/10 13:44:33;;;;;;;12.13;2.20;;;;;;;;;;4976964;28;20432;-73
2022/04/10 13:47:02;;;;;;;11.48;2.30;;;;;;;;;;4974172;28;20038;-73
2022/04/10 13:49:28;;;;;;;11.70;1.90;;;;;;;;;;4977514;28;20518;-71
2022/04/10 13:51:55;;;;;;;9.13;1.75;;;;;;;;;;4958240;28;20515;-75
2022/04/10 13:54:21;;;;;;;9.98;1.83;;;;;;;;;;4961849;28;20479;-72
2022/04/10 13:56:49;;;;;;;11.20;2.20;;;;;;;;;;4979013;28;20053;-71
2022/04/10 13:59:17;;;;;;;9.65;1.63;;;;;;;;;;4974557;28;20022;-71
2022/04/10 14:01:43;;;;;;;10.90;1.92;;;;;;;;;;4982729;28;20034;-72
2022/04/10 14:04:10;;;;;;;9.50;1.90;;;;;;;;;;4978005;28;20718;-70
2022/04/10 14:06:37;;;;;;;8.38;2.00;;;;;;;;;;4999429;28;20440;-73
2022/04/10 14:09:04;;;;;;;8.65;1.90;;;;;;;;;;4996017;28;20479;-71
2022/04/10 14:11:32;;;;;;;10.32;1.80;;;;;;;;;;5004905;28;20469;-72
2022/04/10 14:13:59;;;;;;;9.18;1.83;;;;;;;;;;4992976;28;20439;-71
2022/04/10 14:16:26;;;;;;;9.45;2.25;;;;;;;;;;5000214;28;20784;-72
2022/04/10 14:18:54;;;;;;;11.13;2.08;;;;;;;;;;4992698;28;20033;-72
2022/04/10 14:21:20;;;;;;;11.05;2.70;;;;;;;;;;5001928;28;20029;-70
2022/04/10 14:23:47;;;;;;;8.05;2.00;;;;;;;;;;4998468;28;20025;-72
2022/04/10 14:26:13;;;;;;;9.25;1.88;;;;;;;;;;4987505;28;20029;-71
2022/04/10 14:28:41;;;;;;;8.30;2.00;;;;;;;;;;4995614;28;20033;-72
2022/04/10 14:31:07;;;;;;;10.95;2.40;;;;;;;;;;4990781;28;20533;-71
2022/04/10 14:33:34;;;;;;;14.70;2.17;;;;;;;;;;4994070;28;20183;-73
2022/04/10 14:36:01;;;;;;;12.15;3.85;;;;;;;;;;4995279;28;20492;-70
2022/04/10 14:38:31;;;;;;;9.65;1.77;;;;;;;;;;4997080;28;20033;-71
2022/04/10 14:40:57;;;;;;;8.23;1.80;;;;;;;;;;4999163;28;20513;-71
2022/04/10 14:43:23;;;;;;;10.02;2.30;;;;;;;;;;5000419;28;21265;-71
2022/04/10 14:45:50;;;;;;;8.88;1.90;;;;;;;;;;4994952;28;20639;-71
2022/04/10 14:48:17;;;;;;;7.82;1.73;;;;;;;;;;4995518;28;20032;-71
2022/04/10 14:50:43;;;;;;;9.30;2.08;;;;;;;;;;4998585;28;20682;-72